sensor_id;sensor_type;location;lat;lon;timestamp;temperature;humidity
37232;DHT22;23125;48.156;15.954;2022-10-30T00:00:20;15.90;61.70
37232;DHT22;23125;48.156;15.954;2022-10-30T00:02:47;15.90;61.70
37232;DHT22;23125;48.156;15.954;2022-10-30T00:05:13;15.90;61.80
37232;DHT22;23125;48.156;15.954;2022-10-30T00:07:39;15.90;61.80
37232;DHT22;23125;48.156;15.954;2022-10-30T00:10:05;15.90;61.80
37232;DHT22;23125;48.156;15.954;2022-10-30T00:12:31;15.80;61.80
37232;DHT22;23125;48.156;15.954;2022-10-30T00:14:57;15.90;61.90
37232;DHT22;23125;48.156;15.954;2022-10-30T00:17:23;15.90;61.90
37232;DHT22;23125;48.156;15.954;2022-10-30T00:19:49;15.90;61.90
37232;DHT22;23125;48.156;15.954;2022-10-30T00:22:15;15.90;61.90
37232;DHT22;23125;48.156;15.954;2022-10-30T00:24:41;15.90;61.90
37232;DHT22;23125;48.156;15.954;2022-10-30T00:27:06;15.80;62.00
37232;DHT22;23125;48.156;15.954;2022-10-30T00:29:32;15.80;62.00
37232;DHT22;23125;48.156;15.954;2022-10-30T00:31:58;15.80;62.10
37232;DHT22;23125;48.156;15.954;2022-10-30T00:34:24;15.80;62.20
37232;DHT22;23125;48.156;15.954;2022-10-30T00:36:50;15.80;62.20
37232;DHT22;23125;48.156;15.954;2022-10-30T00:39:15;15.80;62.30
37232;DHT22;23125;48.156;15.954;2022-10-30T00:41:41;15.80;62.30
37232;DHT22;23125;48.156;15.954;2022-10-30T00:47:05;15.80;62.20
37232;DHT22;23125;48.156;15.954;2022-10-30T00:49:38;15.80;62.30
37232;DHT22;23125;48.156;15.954;2022-10-30T00:52:09;15.80;62.40
37232;DHT22;23125;48.156;15.954;2022-10-30T00:54:35;15.80;62.40
37232;DHT22;23125;48.156;15.954;2022-10-30T00:57:05;15.80;62.50
37232;DHT22;23125;48.156;15.954;2022-10-30T00:59:34;15.80;62.50
37232;DHT22;23125;48.156;15.954;2022-10-30T01:02:02;15.80;62.50
37232;DHT22;23125;48.156;15.954;2022-10-30T01:04:31;15.80;62.50
37232;DHT22;23125;48.156;15.954;2022-10-30T01:06:59;15.80;62.50
37232;DHT22;23125;48.156;15.954;2022-10-30T01:09:30;15.80;62.50
37232;DHT22;23125;48.156;15.954;2022-10-30T01:11:56;15.80;62.60
37232;DHT22;23125;48.156;15.954;2022-10-30T01:14:23;15.70;62.60
37232;DHT22;23125;48.156;15.954;2022-10-30T01:27:53;15.70;62.90
37232;DHT22;23125;48.156;15.954;2022-10-30T01:36:06;15.70;62.90
37232;DHT22;23125;48.156;15.954;2022-10-30T01:41:01;15.70;62.80
37232;DHT22;23125;48.156;15.954;2022-10-30T01:43:27;15.70;62.80
37232;DHT22;23125;48.156;15.954;2022-10-30T01:46:03;15.60;62.80
37232;DHT22;23125;48.156;15.954;2022-10-30T01:54:08;15.60;62.90
37232;DHT22;23125;48.156;15.954;2022-10-30T01:56:43;15.50;62.90
37232;DHT22;23125;48.156;15.954;2022-10-30T02:01:42;15.50;63.00
37232;DHT22;23125;48.156;15.954;2022-10-30T02:04:09;15.50;63.00
37232;DHT22;23125;48.156;15.954;2022-10-30T02:06:37;15.50;63.00
37232;DHT22;23125;48.156;15.954;2022-10-30T02:09:04;15.50;63.00
37232;DHT22;23125;48.156;15.954;2022-10-30T02:11:34;15.50;62.90
37232;DHT22;23125;48.156;15.954;2022-10-30T02:14:04;15.50;63.00
37232;DHT22;23125;48.156;15.954;2022-10-30T02:16:33;15.50;63.00
37232;DHT22;23125;48.156;15.954;2022-10-30T02:19:00;15.50;63.00
37232;DHT22;23125;48.156;15.954;2022-10-30T02:21:28;15.50;63.00
37232;DHT22;23125;48.156;15.954;2022-10-30T02:23:53;15.50;63.10
37232;DHT22;23125;48.156;15.954;2022-10-30T02:26:19;15.50;63.10
37232;DHT22;23125;48.156;15.954;2022-10-30T02:28:45;15.40;63.00
37232;DHT22;23125;48.156;15.954;2022-10-30T02:31:11;15.40;63.00
37232;DHT22;23125;48.156;15.954;2022-10-30T02:33:37;15.40;63.00
37232;DHT22;23125;48.156;15.954;2022-10-30T02:36:03;15.40;62.90
37232;DHT22;23125;48.156;15.954;2022-10-30T02:38:28;15.40;63.10
37232;DHT22;23125;48.156;15.954;2022-10-30T02:40:57;15.30;62.80
37232;DHT22;23125;48.156;15.954;2022-10-30T02:43:23;15.30;62.90
37232;DHT22;23125;48.156;15.954;2022-10-30T02:45:50;15.20;62.90
37232;DHT22;23125;48.156;15.954;2022-10-30T02:48:16;15.20;63.00
37232;DHT22;23125;48.156;15.954;2022-10-30T02:50:42;15.20;63.10
37232;DHT22;23125;48.156;15.954;2022-10-30T02:53:08;15.20;63.10
37232;DHT22;23125;48.156;15.954;2022-10-30T02:55:34;15.10;63.00
37232;DHT22;23125;48.156;15.954;2022-10-30T02:58:00;15.10;63.10
37232;DHT22;23125;48.156;15.954;2022-10-30T03:00:25;15.10;63.00
37232;DHT22;23125;48.156;15.954;2022-10-30T03:02:55;15.10;63.00
37232;DHT22;23125;48.156;15.954;2022-10-30T03:05:22;15.00;62.90
37232;DHT22;23125;48.156;15.954;2022-10-30T03:07:48;15.00;63.00
37232;DHT22;23125;48.156;15.954;2022-10-30T03:10:17;15.00;62.90
37232;DHT22;23125;48.156;15.954;2022-10-30T03:12:43;14.90;62.80
37232;DHT22;23125;48.156;15.954;2022-10-30T03:15:09;14.90;62.80
37232;DHT22;23125;48.156;15.954;2022-10-30T03:17:35;14.90;62.70
37232;DHT22;23125;48.156;15.954;2022-10-30T03:20:01;14.90;62.60
37232;DHT22;23125;48.156;15.954;2022-10-30T03:22:27;14.80;62.60
37232;DHT22;23125;48.156;15.954;2022-10-30T03:24:54;14.80;62.70
37232;DHT22;23125;48.156;15.954;2022-10-30T03:27:20;14.70;62.70
37232;DHT22;23125;48.156;15.954;2022-10-30T03:29:46;14.70;62.70
37232;DHT22;23125;48.156;15.954;2022-10-30T03:32:11;14.70;62.60
37232;DHT22;23125;48.156;15.954;2022-10-30T03:34:37;14.70;62.60
37232;DHT22;23125;48.156;15.954;2022-10-30T03:37:03;14.60;62.40
37232;DHT22;23125;48.156;15.954;2022-10-30T03:39:30;14.60;62.50
37232;DHT22;23125;48.156;15.954;2022-10-30T03:41:56;14.50;62.40
37232;DHT22;23125;48.156;15.954;2022-10-30T03:44:22;14.50;62.50
37232;DHT22;23125;48.156;15.954;2022-10-30T03:46:47;14.50;62.50
37232;DHT22;23125;48.156;15.954;2022-10-30T03:49:13;14.50;62.50
37232;DHT22;23125;48.156;15.954;2022-10-30T03:51:39;14.40;62.30
37232;DHT22;23125;48.156;15.954;2022-10-30T03:54:05;14.40;62.30
37232;DHT22;23125;48.156;15.954;2022-10-30T03:56:31;14.30;62.40
37232;DHT22;23125;48.156;15.954;2022-10-30T03:58:56;14.30;62.50
37232;DHT22;23125;48.156;15.954;2022-10-30T04:01:22;14.30;62.50
37232;DHT22;23125;48.156;15.954;2022-10-30T04:03:48;14.30;62.50
37232;DHT22;23125;48.156;15.954;2022-10-30T04:06:14;14.20;62.30
37232;DHT22;23125;48.156;15.954;2022-10-30T04:08:40;14.20;62.20
37232;DHT22;23125;48.156;15.954;2022-10-30T04:11:08;14.20;62.20
37232;DHT22;23125;48.156;15.954;2022-10-30T04:13:33;14.10;63.00
37232;DHT22;23125;48.156;15.954;2022-10-30T04:15:59;14.10;62.20
37232;DHT22;23125;48.156;15.954;2022-10-30T04:18:25;14.10;62.40
37232;DHT22;23125;48.156;15.954;2022-10-30T04:20:51;14.00;62.40
37232;DHT22;23125;48.156;15.954;2022-10-30T04:23:18;14.00;62.40
37232;DHT22;23125;48.156;15.954;2022-10-30T04:25:45;14.00;62.50
37232;DHT22;23125;48.156;15.954;2022-10-30T04:28:11;14.00;62.50
37232;DHT22;23125;48.156;15.954;2022-10-30T04:30:37;13.90;62.40
37232;DHT22;23125;48.156;15.954;2022-10-30T04:33:07;13.90;62.30
37232;DHT22;23125;48.156;15.954;2022-10-30T04:35:35;13.90;62.20
37232;DHT22;23125;48.156;15.954;2022-10-30T04:38:03;13.90;62.20
37232;DHT22;23125;48.156;15.954;2022-10-30T04:40:32;13.80;62.20
37232;DHT22;23125;48.156;15.954;2022-10-30T04:42:59;13.80;62.20
37232;DHT22;23125;48.156;15.954;2022-10-30T04:45:27;13.80;62.20
37232;DHT22;23125;48.156;15.954;2022-10-30T04:48:03;13.70;62.80
37232;DHT22;23125;48.156;15.954;2022-10-30T04:50:31;13.70;62.10
37232;DHT22;23125;48.156;15.954;2022-10-30T04:53:02;13.70;62.10
37232;DHT22;23125;48.156;15.954;2022-10-30T04:55:29;13.60;62.10
37232;DHT22;23125;48.156;15.954;2022-10-30T04:57:56;13.60;62.10
37232;DHT22;23125;48.156;15.954;2022-10-30T05:00:23;13.50;62.10
37232;DHT22;23125;48.156;15.954;2022-10-30T05:02:49;13.50;62.00
37232;DHT22;23125;48.156;15.954;2022-10-30T05:05:15;13.50;62.00
37232;DHT22;23125;48.156;15.954;2022-10-30T05:07:41;13.40;62.00
37232;DHT22;23125;48.156;15.954;2022-10-30T05:10:11;13.30;61.90
37232;DHT22;23125;48.156;15.954;2022-10-30T05:12:43;13.30;62.60
37232;DHT22;23125;48.156;15.954;2022-10-30T05:15:10;13.30;62.10
37232;DHT22;23125;48.156;15.954;2022-10-30T05:17:36;13.30;62.10
37232;DHT22;23125;48.156;15.954;2022-10-30T05:20:02;13.20;62.10
37232;DHT22;23125;48.156;15.954;2022-10-30T05:22:28;13.20;62.10
37232;DHT22;23125;48.156;15.954;2022-10-30T05:24:54;13.20;62.20
37232;DHT22;23125;48.156;15.954;2022-10-30T05:27:20;13.20;62.10
37232;DHT22;23125;48.156;15.954;2022-10-30T05:29:46;13.10;62.00
37232;DHT22;23125;48.156;15.954;2022-10-30T05:32:11;13.10;62.00
37232;DHT22;23125;48.156;15.954;2022-10-30T05:34:37;13.10;62.10
37232;DHT22;23125;48.156;15.954;2022-10-30T05:37:03;13.00;62.00
37232;DHT22;23125;48.156;15.954;2022-10-30T05:39:29;13.00;62.10
37232;DHT22;23125;48.156;15.954;2022-10-30T05:41:55;13.00;62.10
37232;DHT22;23125;48.156;15.954;2022-10-30T05:44:20;13.00;62.10
37232;DHT22;23125;48.156;15.954;2022-10-30T05:46:46;12.90;62.10
37232;DHT22;23125;48.156;15.954;2022-10-30T05:49:12;12.90;62.10
37232;DHT22;23125;48.156;15.954;2022-10-30T05:51:38;12.90;62.10
37232;DHT22;23125;48.156;15.954;2022-10-30T05:54:04;12.80;62.10
37232;DHT22;23125;48.156;15.954;2022-10-30T05:56:30;12.80;62.20
37232;DHT22;23125;48.156;15.954;2022-10-30T05:58:56;12.80;62.30
37232;DHT22;23125;48.156;15.954;2022-10-30T06:01:21;12.70;62.20
37232;DHT22;23125;48.156;15.954;2022-10-30T06:03:47;12.80;62.30
37232;DHT22;23125;48.156;15.954;2022-10-30T06:06:13;12.80;62.40
37232;DHT22;23125;48.156;15.954;2022-10-30T06:08:39;12.80;62.40
37232;DHT22;23125;48.156;15.954;2022-10-30T06:11:05;12.70;62.40
37232;DHT22;23125;48.156;15.954;2022-10-30T06:13:30;12.80;62.50
37232;DHT22;23125;48.156;15.954;2022-10-30T06:15:56;12.70;62.60
37232;DHT22;23125;48.156;15.954;2022-10-30T06:18:22;12.70;62.70
37232;DHT22;23125;48.156;15.954;2022-10-30T06:20:48;12.80;62.80
37232;DHT22;23125;48.156;15.954;2022-10-30T06:23:14;12.70;62.80
37232;DHT22;23125;48.156;15.954;2022-10-30T06:25:40;12.80;63.00
37232;DHT22;23125;48.156;15.954;2022-10-30T06:28:06;12.80;63.10
37232;DHT22;23125;48.156;15.954;2022-10-30T06:30:32;12.80;63.30
37232;DHT22;23125;48.156;15.954;2022-10-30T06:32:59;12.80;63.30
37232;DHT22;23125;48.156;15.954;2022-10-30T06:35:26;12.90;63.60
37232;DHT22;23125;48.156;15.954;2022-10-30T06:37:52;12.90;63.70
37232;DHT22;23125;48.156;15.954;2022-10-30T06:40:20;13.00;63.80
37232;DHT22;23125;48.156;15.954;2022-10-30T06:42:48;13.00;63.80
37232;DHT22;23125;48.156;15.954;2022-10-30T06:45:15;13.10;63.90
37232;DHT22;23125;48.156;15.954;2022-10-30T06:47:42;13.20;63.80
37232;DHT22;23125;48.156;15.954;2022-10-30T06:50:13;13.20;63.80
37232;DHT22;23125;48.156;15.954;2022-10-30T06:52:40;13.30;64.30
37232;DHT22;23125;48.156;15.954;2022-10-30T06:55:06;13.40;64.60
37232;DHT22;23125;48.156;15.954;2022-10-30T06:57:32;13.50;64.90
37232;DHT22;23125;48.156;15.954;2022-10-30T06:59:58;13.60;65.00
37232;DHT22;23125;48.156;15.954;2022-10-30T07:02:24;13.70;65.00
37232;DHT22;23125;48.156;15.954;2022-10-30T07:04:50;13.80;65.20
37232;DHT22;23125;48.156;15.954;2022-10-30T07:07:16;14.00;65.50
37232;DHT22;23125;48.156;15.954;2022-10-30T07:09:42;14.10;65.90
37232;DHT22;23125;48.156;15.954;2022-10-30T07:12:08;14.30;66.10
37232;DHT22;23125;48.156;15.954;2022-10-30T07:14:35;14.40;66.10
37232;DHT22;23125;48.156;15.954;2022-10-30T07:17:00;14.70;66.40
37232;DHT22;23125;48.156;15.954;2022-10-30T07:19:27;14.90;66.30
37232;DHT22;23125;48.156;15.954;2022-10-30T07:21:53;15.00;66.10
37232;DHT22;23125;48.156;15.954;2022-10-30T07:24:18;15.20;66.40
37232;DHT22;23125;48.156;15.954;2022-10-30T07:26:44;15.40;66.50
37232;DHT22;23125;48.156;15.954;2022-10-30T07:29:10;15.70;66.20
37232;DHT22;23125;48.156;15.954;2022-10-30T07:31:36;15.90;66.50
37232;DHT22;23125;48.156;15.954;2022-10-30T07:34:02;16.20;66.70
37232;DHT22;23125;48.156;15.954;2022-10-30T07:36:28;16.50;66.80
37232;DHT22;23125;48.156;15.954;2022-10-30T07:38:53;16.80;66.80
37232;DHT22;23125;48.156;15.954;2022-10-30T07:41:20;17.10;66.70
37232;DHT22;23125;48.156;15.954;2022-10-30T07:43:47;17.40;66.70
37232;DHT22;23125;48.156;15.954;2022-10-30T07:46:13;17.80;66.40
37232;DHT22;23125;48.156;15.954;2022-10-30T07:48:39;18.10;66.20
37232;DHT22;23125;48.156;15.954;2022-10-30T07:51:05;18.40;65.60
37232;DHT22;23125;48.156;15.954;2022-10-30T07:53:32;18.70;65.00
37232;DHT22;23125;48.156;15.954;2022-10-30T07:55:58;19.00;64.50
37232;DHT22;23125;48.156;15.954;2022-10-30T07:58:24;19.30;64.00
37232;DHT22;23125;48.156;15.954;2022-10-30T08:00:50;19.50;63.20
37232;DHT22;23125;48.156;15.954;2022-10-30T08:03:16;19.60;62.80
37232;DHT22;23125;48.156;15.954;2022-10-30T08:05:41;19.90;62.80
37232;DHT22;23125;48.156;15.954;2022-10-30T08:08:08;20.20;62.20
37232;DHT22;23125;48.156;15.954;2022-10-30T08:10:35;20.40;61.90
37232;DHT22;23125;48.156;15.954;2022-10-30T08:13:02;20.60;61.60
37232;DHT22;23125;48.156;15.954;2022-10-30T08:15:28;20.80;61.60
37232;DHT22;23125;48.156;15.954;2022-10-30T08:17:54;21.10;61.40
37232;DHT22;23125;48.156;15.954;2022-10-30T08:20:22;21.40;61.40
37232;DHT22;23125;48.156;15.954;2022-10-30T08:22:49;21.70;61.00
37232;DHT22;23125;48.156;15.954;2022-10-30T08:25:17;22.00;60.50
37232;DHT22;23125;48.156;15.954;2022-10-30T08:27:57;22.40;60.10
37232;DHT22;23125;48.156;15.954;2022-10-30T08:30:26;22.70;59.90
37232;DHT22;23125;48.156;15.954;2022-10-30T08:32:56;23.10;59.40
37232;DHT22;23125;48.156;15.954;2022-10-30T08:35:23;23.40;58.60
37232;DHT22;23125;48.156;15.954;2022-10-30T08:37:49;23.60;57.80
37232;DHT22;23125;48.156;15.954;2022-10-30T08:40:17;23.90;57.30
37232;DHT22;23125;48.156;15.954;2022-10-30T08:42:52;24.10;56.70
37232;DHT22;23125;48.156;15.954;2022-10-30T08:45:19;24.30;55.80
37232;DHT22;23125;48.156;15.954;2022-10-30T08:47:46;24.40;55.10
37232;DHT22;23125;48.156;15.954;2022-10-30T08:50:12;24.60;54.80
37232;DHT22;23125;48.156;15.954;2022-10-30T08:52:38;24.70;54.30
37232;DHT22;23125;48.156;15.954;2022-10-30T08:55:04;24.90;54.10
37232;DHT22;23125;48.156;15.954;2022-10-30T08:57:36;25.00;53.70
37232;DHT22;23125;48.156;15.954;2022-10-30T09:00:05;25.20;53.80
37232;DHT22;23125;48.156;15.954;2022-10-30T09:02:32;25.40;53.00
37232;DHT22;23125;48.156;15.954;2022-10-30T09:04:58;25.50;52.60
37232;DHT22;23125;48.156;15.954;2022-10-30T09:07:24;25.70;52.20
37232;DHT22;23125;48.156;15.954;2022-10-30T09:09:50;25.70;51.70
37232;DHT22;23125;48.156;15.954;2022-10-30T09:12:16;25.80;51.10
37232;DHT22;23125;48.156;15.954;2022-10-30T09:14:42;25.90;50.70
37232;DHT22;23125;48.156;15.954;2022-10-30T09:17:07;25.90;50.50
37232;DHT22;23125;48.156;15.954;2022-10-30T09:19:34;26.00;50.30
37232;DHT22;23125;48.156;15.954;2022-10-30T09:22:00;26.10;50.00
37232;DHT22;23125;48.156;15.954;2022-10-30T09:24:25;26.10;49.70
37232;DHT22;23125;48.156;15.954;2022-10-30T09:26:51;26.30;49.70
37232;DHT22;23125;48.156;15.954;2022-10-30T09:29:19;26.40;49.50
37232;DHT22;23125;48.156;15.954;2022-10-30T09:31:45;26.50;49.40
37232;DHT22;23125;48.156;15.954;2022-10-30T09:34:11;26.60;49.00
37232;DHT22;23125;48.156;15.954;2022-10-30T09:36:37;26.70;48.90
37232;DHT22;23125;48.156;15.954;2022-10-30T09:39:03;26.80;48.50
37232;DHT22;23125;48.156;15.954;2022-10-30T09:47:42;27.10;47.50
37232;DHT22;23125;48.156;15.954;2022-10-30T09:50:27;27.20;47.00
37232;DHT22;23125;48.156;15.954;2022-10-30T09:58:33;27.30;46.10
37232;DHT22;23125;48.156;15.954;2022-10-30T10:01:11;27.40;46.00
37232;DHT22;23125;48.156;15.954;2022-10-30T10:04:00;27.40;45.80
37232;DHT22;23125;48.156;15.954;2022-10-30T10:06:27;27.40;45.40
37232;DHT22;23125;48.156;15.954;2022-10-30T10:09:00;27.50;45.40
37232;DHT22;23125;48.156;15.954;2022-10-30T10:11:35;27.50;45.00
37232;DHT22;23125;48.156;15.954;2022-10-30T10:14:08;27.40;44.90
37232;DHT22;23125;48.156;15.954;2022-10-30T10:16:39;27.50;44.70
37232;DHT22;23125;48.156;15.954;2022-10-30T10:19:25;27.50;44.80
37232;DHT22;23125;48.156;15.954;2022-10-30T10:22:01;27.50;44.70
37232;DHT22;23125;48.156;15.954;2022-10-30T10:24:33;27.50;44.50
37232;DHT22;23125;48.156;15.954;2022-10-30T10:30:23;27.50;44.60
37232;DHT22;23125;48.156;15.954;2022-10-30T10:33:13;27.60;44.50
37232;DHT22;23125;48.156;15.954;2022-10-30T10:35:49;27.60;44.30
37232;DHT22;23125;48.156;15.954;2022-10-30T10:44:00;27.70;43.70
37232;DHT22;23125;48.156;15.954;2022-10-30T10:51:46;27.60;43.30
37232;DHT22;23125;48.156;15.954;2022-10-30T10:54:38;27.60;43.30
37232;DHT22;23125;48.156;15.954;2022-10-30T10:57:07;27.50;43.00
37232;DHT22;23125;48.156;15.954;2022-10-30T10:59:39;27.40;43.00
37232;DHT22;23125;48.156;15.954;2022-10-30T11:02:27;27.30;42.90
37232;DHT22;23125;48.156;15.954;2022-10-30T11:05:00;27.20;42.80
37232;DHT22;23125;48.156;15.954;2022-10-30T11:07:37;27.10;42.70
37232;DHT22;23125;48.156;15.954;2022-10-30T11:10:11;26.90;42.60
37232;DHT22;23125;48.156;15.954;2022-10-30T11:12:38;26.80;42.70
37232;DHT22;23125;48.156;15.954;2022-10-30T11:15:21;26.70;42.80
37232;DHT22;23125;48.156;15.954;2022-10-30T11:18:03;26.50;42.90
37232;DHT22;23125;48.156;15.954;2022-10-30T11:20:37;26.30;42.90
37232;DHT22;23125;48.156;15.954;2022-10-30T11:23:45;26.20;42.90
37232;DHT22;23125;48.156;15.954;2022-10-30T11:31:34;25.70;43.30
37232;DHT22;23125;48.156;15.954;2022-10-30T11:36:50;25.30;43.60
37232;DHT22;23125;48.156;15.954;2022-10-30T11:39:24;25.20;43.80
37232;DHT22;23125;48.156;15.954;2022-10-30T11:42:11;25.00;43.90
37232;DHT22;23125;48.156;15.954;2022-10-30T11:44:47;24.80;44.00
37232;DHT22;23125;48.156;15.954;2022-10-30T11:47:20;24.70;44.20
37232;DHT22;23125;48.156;15.954;2022-10-30T11:49:48;24.50;44.40
37232;DHT22;23125;48.156;15.954;2022-10-30T11:52:20;24.30;44.50
37232;DHT22;23125;48.156;15.954;2022-10-30T11:54:53;24.20;44.90
37232;DHT22;23125;48.156;15.954;2022-10-30T11:59:54;23.90;45.30
37232;DHT22;23125;48.156;15.954;2022-10-30T12:02:27;23.80;46.10
37232;DHT22;23125;48.156;15.954;2022-10-30T12:05:00;23.70;45.60
37232;DHT22;23125;48.156;15.954;2022-10-30T12:07:31;23.60;45.80
37232;DHT22;23125;48.156;15.954;2022-10-30T12:09:58;23.50;46.10
37232;DHT22;23125;48.156;15.954;2022-10-30T12:12:27;23.40;46.20
37232;DHT22;23125;48.156;15.954;2022-10-30T12:14:54;23.30;46.50
37232;DHT22;23125;48.156;15.954;2022-10-30T12:17:20;23.20;46.70
37232;DHT22;23125;48.156;15.954;2022-10-30T12:19:50;23.10;46.80
37232;DHT22;23125;48.156;15.954;2022-10-30T12:22:32;23.00;47.00
37232;DHT22;23125;48.156;15.954;2022-10-30T12:25:06;22.90;47.30
37232;DHT22;23125;48.156;15.954;2022-10-30T12:27:40;22.90;47.60
37232;DHT22;23125;48.156;15.954;2022-10-30T12:30:14;22.80;47.70
37232;DHT22;23125;48.156;15.954;2022-10-30T12:33:55;22.80;47.80
37232;DHT22;23125;48.156;15.954;2022-10-30T12:36:02;22.70;47.90
37232;DHT22;23125;48.156;15.954;2022-10-30T12:41:24;22.60;48.30
37232;DHT22;23125;48.156;15.954;2022-10-30T12:44:03;22.50;48.40
37232;DHT22;23125;48.156;15.954;2022-10-30T12:46:54;22.50;48.60
37232;DHT22;23125;48.156;15.954;2022-10-30T12:49:40;22.30;48.70
37232;DHT22;23125;48.156;15.954;2022-10-30T12:55:01;22.20;49.00
37232;DHT22;23125;48.156;15.954;2022-10-30T12:57:35;22.10;49.10
37232;DHT22;23125;48.156;15.954;2022-10-30T13:00:09;22.00;49.20
37232;DHT22;23125;48.156;15.954;2022-10-30T13:02:41;22.00;49.40
37232;DHT22;23125;48.156;15.954;2022-10-30T13:10:33;21.80;49.80
37232;DHT22;23125;48.156;15.954;2022-10-30T13:13:14;21.80;50.00
37232;DHT22;23125;48.156;15.954;2022-10-30T13:15:45;21.70;50.10
37232;DHT22;23125;48.156;15.954;2022-10-30T13:18:17;21.60;50.20
37232;DHT22;23125;48.156;15.954;2022-10-30T13:23:54;21.50;50.30
37232;DHT22;23125;48.156;15.954;2022-10-30T13:26:38;21.40;50.50
37232;DHT22;23125;48.156;15.954;2022-10-30T13:29:10;21.30;50.60
37232;DHT22;23125;48.156;15.954;2022-10-30T13:34:59;21.20;51.10
37232;DHT22;23125;48.156;15.954;2022-10-30T13:38:08;21.20;51.30
37232;DHT22;23125;48.156;15.954;2022-10-30T13:46:01;21.10;51.80
37232;DHT22;23125;48.156;15.954;2022-10-30T13:48:49;21.00;51.80
37232;DHT22;23125;48.156;15.954;2022-10-30T13:51:31;21.00;51.90
37232;DHT22;23125;48.156;15.954;2022-10-30T13:56:53;20.90;52.10
37232;DHT22;23125;48.156;15.954;2022-10-30T14:07:22;20.70;52.50
37232;DHT22;23125;48.156;15.954;2022-10-30T14:10:10;20.70;52.60
37232;DHT22;23125;48.156;15.954;2022-10-30T14:15:27;20.60;52.70
37232;DHT22;23125;48.156;15.954;2022-10-30T14:20:37;20.60;53.50
37232;DHT22;23125;48.156;15.954;2022-10-30T14:23:07;20.50;52.90
37232;DHT22;23125;48.156;15.954;2022-10-30T14:25:34;20.50;53.00
37232;DHT22;23125;48.156;15.954;2022-10-30T14:28:00;20.50;53.00
37232;DHT22;23125;48.156;15.954;2022-10-30T14:30:27;20.40;53.10
37232;DHT22;23125;48.156;15.954;2022-10-30T14:32:53;20.40;53.20
37232;DHT22;23125;48.156;15.954;2022-10-30T14:35:36;20.30;53.30
37232;DHT22;23125;48.156;15.954;2022-10-30T14:40:46;20.20;53.50
37232;DHT22;23125;48.156;15.954;2022-10-30T14:52:33;20.00;53.80
37232;DHT22;23125;48.156;15.954;2022-10-30T14:55:45;20.00;54.00
37232;DHT22;23125;48.156;15.954;2022-10-30T14:58:23;19.90;54.00
37232;DHT22;23125;48.156;15.954;2022-10-30T15:01:16;19.90;54.20
37232;DHT22;23125;48.156;15.954;2022-10-30T15:03:57;19.80;54.30
37232;DHT22;23125;48.156;15.954;2022-10-30T15:07:06;19.80;54.40
37232;DHT22;23125;48.156;15.954;2022-10-30T15:09:35;19.80;54.50
37232;DHT22;23125;48.156;15.954;2022-10-30T15:15:14;19.70;54.80
37232;DHT22;23125;48.156;15.954;2022-10-30T15:17:47;19.70;54.80
37232;DHT22;23125;48.156;15.954;2022-10-30T15:20:22;19.70;55.00
37232;DHT22;23125;48.156;15.954;2022-10-30T15:22:54;19.60;55.00
37232;DHT22;23125;48.156;15.954;2022-10-30T15:25:22;19.60;55.10
37232;DHT22;23125;48.156;15.954;2022-10-30T15:27:54;19.60;55.20
37232;DHT22;23125;48.156;15.954;2022-10-30T15:30:23;19.60;55.30
37232;DHT22;23125;48.156;15.954;2022-10-30T15:32:50;19.60;55.40
37232;DHT22;23125;48.156;15.954;2022-10-30T15:35:21;19.60;55.40
37232;DHT22;23125;48.156;15.954;2022-10-30T15:38:05;19.50;55.50
37232;DHT22;23125;48.156;15.954;2022-10-30T15:40:33;19.50;55.60
37232;DHT22;23125;48.156;15.954;2022-10-30T15:43:00;19.50;55.60
37232;DHT22;23125;48.156;15.954;2022-10-30T15:48:25;19.40;55.80
37232;DHT22;23125;48.156;15.954;2022-10-30T15:53:34;19.40;56.00
37232;DHT22;23125;48.156;15.954;2022-10-30T15:56:02;19.30;56.00
37232;DHT22;23125;48.156;15.954;2022-10-30T15:58:30;19.30;56.20
37232;DHT22;23125;48.156;15.954;2022-10-30T16:01:00;19.20;56.30
37232;DHT22;23125;48.156;15.954;2022-10-30T16:03:28;19.20;56.40
37232;DHT22;23125;48.156;15.954;2022-10-30T16:06:15;19.20;56.50
37232;DHT22;23125;48.156;15.954;2022-10-30T16:08:46;19.10;56.60
37232;DHT22;23125;48.156;15.954;2022-10-30T16:11:14;19.10;56.70
37232;DHT22;23125;48.156;15.954;2022-10-30T16:13:41;19.10;56.70
37232;DHT22;23125;48.156;15.954;2022-10-30T16:16:21;19.10;56.90
37232;DHT22;23125;48.156;15.954;2022-10-30T16:18:49;19.00;56.90
37232;DHT22;23125;48.156;15.954;2022-10-30T16:21:18;19.00;57.00
37232;DHT22;23125;48.156;15.954;2022-10-30T16:23:49;19.00;57.10
37232;DHT22;23125;48.156;15.954;2022-10-30T16:26:28;19.00;57.10
37232;DHT22;23125;48.156;15.954;2022-10-30T16:31:33;19.00;57.40
37232;DHT22;23125;48.156;15.954;2022-10-30T16:34:02;19.00;57.40
37232;DHT22;23125;48.156;15.954;2022-10-30T16:36:29;19.00;57.50
37232;DHT22;23125;48.156;15.954;2022-10-30T16:38:56;19.00;57.50
37232;DHT22;23125;48.156;15.954;2022-10-30T16:41:22;19.00;57.60
37232;DHT22;23125;48.156;15.954;2022-10-30T16:46:54;18.90;57.70
37232;DHT22;23125;48.156;15.954;2022-10-30T16:49:26;18.90;57.80
37232;DHT22;23125;48.156;15.954;2022-10-30T16:52:04;18.90;57.90
37232;DHT22;23125;48.156;15.954;2022-10-30T16:54:36;18.90;57.90
37232;DHT22;23125;48.156;15.954;2022-10-30T16:57:03;18.90;58.00
37232;DHT22;23125;48.156;15.954;2022-10-30T16:59:43;18.90;58.00
37232;DHT22;23125;48.156;15.954;2022-10-30T17:02:16;18.80;58.00
37232;DHT22;23125;48.156;15.954;2022-10-30T17:04:45;18.80;58.10
37232;DHT22;23125;48.156;15.954;2022-10-30T17:07:19;18.80;58.20
37232;DHT22;23125;48.156;15.954;2022-10-30T17:09:48;18.80;58.30
37232;DHT22;23125;48.156;15.954;2022-10-30T17:12:18;18.80;58.30
37232;DHT22;23125;48.156;15.954;2022-10-30T17:14:50;18.70;58.40
37232;DHT22;23125;48.156;15.954;2022-10-30T17:17:29;18.70;58.40
37232;DHT22;23125;48.156;15.954;2022-10-30T17:20:24;18.70;58.40
37232;DHT22;23125;48.156;15.954;2022-10-30T17:23:04;18.70;58.40
37232;DHT22;23125;48.156;15.954;2022-10-30T17:25:37;18.70;58.50
37232;DHT22;23125;48.156;15.954;2022-10-30T17:28:05;18.80;58.70
37232;DHT22;23125;48.156;15.954;2022-10-30T17:30:38;18.70;58.60
37232;DHT22;23125;48.156;15.954;2022-10-30T17:33:31;18.70;58.70
37232;DHT22;23125;48.156;15.954;2022-10-30T17:35:59;18.70;58.60
37232;DHT22;23125;48.156;15.954;2022-10-30T17:38:26;18.70;58.70
37232;DHT22;23125;48.156;15.954;2022-10-30T17:40:52;18.60;58.80
37232;DHT22;23125;48.156;15.954;2022-10-30T17:43:18;18.60;58.90